Time;durP1;ratioP1;P1;durP2;ratioP2;P2;SDS_P1;SDS_P2;PMS_P1;PMS_P2;Temp;Humidity;BMP_temperature;BMP_pressure;BME280_temperature;BME280_humidity;BME280_pressure;Samples;Min_cycle;Max_cycle;Signal;HPM_P1;HPM_P2
2022/11/16 00:03:50;;;;;;;14.38;9.35;;;;;;;;;;10460550;28;20040;-77
2022/11/16 00:14:12;;;;;;;14.85;9.80;;;;;;;;;;10481884;28;20029;-78
2022/11/16 00:19:14;;;;;;;15.15;10.63;;;;;;;;;;10482521;28;20112;-79
2022/11/16 00:24:15;;;;;;;16.92;9.70;;;;;;;;;;10489441;28;20527;-77
2022/11/16 00:29:20;;;;;;;15.32;9.80;;;;;;;;;;10473852;28;20048;-80
2022/11/16 00:34:21;;;;;;;14.05;9.25;;;;;;;;;;10481159;28;20036;-77
2022/11/16 00:39:21;;;;;;;14.75;9.68;;;;;;;;;;10469865;28;20040;-77
2022/11/16 00:44:22;;;;;;;16.38;9.73;;;;;;;;;;10482293;28;20125;-78
2022/11/16 00:49:22;;;;;;;15.03;9.47;;;;;;;;;;10489167;28;20090;-77
2022/11/16 00:54:23;;;;;;;13.57;8.93;;;;;;;;;;10483045;28;20904;-77
2022/11/16 00:59:24;;;;;;;14.75;8.93;;;;;;;;;;10475445;28;20058;-78
2022/11/16 01:04:27;;;;;;;14.32;9.45;;;;;;;;;;10462893;28;20438;-78
2022/11/16 01:09:28;;;;;;;16.17;9.93;;;;;;;;;;10484776;28;20037;-77
2022/11/16 01:14:29;;;;;;;12.82;8.68;;;;;;;;;;10472971;28;20287;-79
2022/11/16 01:19:29;;;;;;;15.10;9.40;;;;;;;;;;10471488;28;20036;-78
2022/11/16 01:24:31;;;;;;;15.48;9.57;;;;;;;;;;10481381;28;20032;-77
2022/11/16 01:29:32;;;;;;;15.77;9.63;;;;;;;;;;10477524;28;20060;-78
2022/11/16 01:34:35;;;;;;;13.83;8.97;;;;;;;;;;10502625;28;20040;-78
2022/11/16 01:39:48;;;;;;;16.05;9.25;;;;;;;;;;10489622;28;20550;-78
2022/11/16 01:44:48;;;;;;;15.73;9.43;;;;;;;;;;10474416;28;20033;-77
2022/11/16 01:50:03;;;;;;;13.32;9.50;;;;;;;;;;10468218;28;20032;-75
2022/11/16 01:55:06;;;;;;;15.70;9.52;;;;;;;;;;10475838;28;20131;-77
2022/11/16 02:00:26;;;;;;;15.65;8.77;;;;;;;;;;10474912;28;20055;-77
2022/11/16 02:05:56;;;;;;;17.33;10.80;;;;;;;;;;10483112;28;20041;-78
2022/11/16 02:11:16;;;;;;;16.45;10.35;;;;;;;;;;10470919;28;20468;-76
2022/11/16 02:16:23;;;;;;;15.90;10.05;;;;;;;;;;10470274;28;20036;-77
2022/11/16 02:21:37;;;;;;;17.35;10.13;;;;;;;;;;10468567;28;20028;-77
2022/11/16 02:26:55;;;;;;;17.80;10.15;;;;;;;;;;10484887;28;20041;-78
2022/11/16 02:32:07;;;;;;;17.10;10.35;;;;;;;;;;10467417;28;20029;-77
2022/11/16 02:37:09;;;;;;;17.02;10.77;;;;;;;;;;10492647;28;20033;-78
2022/11/16 02:42:15;;;;;;;22.15;11.73;;;;;;;;;;10461607;28;20494;-79
2022/11/16 02:47:19;;;;;;;18.00;11.50;;;;;;;;;;10468543;28;20144;-77
2022/11/16 02:52:23;;;;;;;18.70;11.13;;;;;;;;;;10450531;28;20037;-77
2022/11/16 02:57:38;;;;;;;22.40;12.95;;;;;;;;;;10460978;28;20029;-76
2022/11/16 03:03:01;;;;;;;22.65;12.07;;;;;;;;;;10467946;28;20071;-77
2022/11/16 03:08:05;;;;;;;21.67;12.65;;;;;;;;;;10466370;28;20048;-77
2022/11/16 03:13:08;;;;;;;20.73;12.73;;;;;;;;;;10478059;28;20041;-77
2022/11/16 03:18:11;;;;;;;22.30;13.43;;;;;;;;;;10470765;28;20060;-76
2022/11/16 03:23:12;;;;;;;22.67;13.47;;;;;;;;;;10477954;28;20033;-76
2022/11/16 03:28:38;;;;;;;25.23;14.23;;;;;;;;;;10475941;28;20041;-77
2022/11/16 03:33:40;;;;;;;;;;;;;;;;;;10453627;28;20106;-76
2022/11/16 03:38:41;;;;;;;27.17;13.47;;;;;;;;;;10469011;28;19912;-76
2022/11/16 03:43:42;;;;;;;26.20;13.93;;;;;;;;;;10484750;28;20131;-76
2022/11/16 03:48:43;;;;;;;27.23;14.27;;;;;;;;;;10478500;28;20083;-77
2022/11/16 03:53:53;;;;;;;27.52;14.85;;;;;;;;;;10490474;28;20114;-75
2022/11/16 03:58:53;;;;;;;25.42;14.75;;;;;;;;;;10485247;28;20068;-75
2022/11/16 04:03:54;;;;;;;26.30;14.95;;;;;;;;;;10469389;28;20040;-75
2022/11/16 04:25:06;;;;;;;25.52;14.40;;;;;;;;;;10484082;28;20075;-78
2022/11/16 04:30:06;;;;;;;25.25;15.07;;;;;;;;;;10482568;28;20865;-74
2022/11/16 04:40:47;;;;;;;27.98;14.57;;;;;;;;;;10375541;28;20211;-76
2022/11/16 04:51:12;;;;;;;25.17;15.25;;;;;;;;;;10500226;28;20044;-73
2022/11/16 04:56:14;;;;;;;26.33;14.15;;;;;;;;;;10468089;28;20112;-73
2022/11/16 05:01:14;;;;;;;26.05;14.48;;;;;;;;;;10514732;28;20021;-76
2022/11/16 05:06:16;;;;;;;26.95;14.98;;;;;;;;;;10492505;28;20096;-74
2022/11/16 05:11:16;;;;;;;30.63;15.20;;;;;;;;;;10493436;28;20060;-74
2022/11/16 05:16:17;;;;;;;27.08;13.93;;;;;;;;;;10460043;28;20444;-76
2022/11/16 05:21:17;;;;;;;29.77;15.20;;;;;;;;;;10452165;28;20384;-75
2022/11/16 05:26:18;;;;;;;29.13;16.02;;;;;;;;;;10465151;28;20083;-75
2022/11/16 05:31:19;;;;;;;29.10;15.57;;;;;;;;;;10463592;28;20033;-75
2022/11/16 05:36:21;;;;;;;30.70;15.52;;;;;;;;;;10475346;28;20113;-76
2022/11/16 05:41:24;;;;;;;29.98;15.50;;;;;;;;;;10456886;28;20040;-75
2022/11/16 05:46:26;;;;;;;29.45;15.48;;;;;;;;;;10440963;28;20049;-75
2022/11/16 05:51:29;;;;;;;32.05;15.57;;;;;;;;;;10460756;28;20037;-76
2022/11/16 05:56:30;;;;;;;27.55;15.73;;;;;;;;;;10479299;28;20028;-78
2022/11/16 06:01:31;;;;;;;28.48;14.90;;;;;;;;;;10465675;28;20456;-75
2022/11/16 06:06:32;;;;;;;33.97;16.40;;;;;;;;;;10454238;28;20044;-75
2022/11/16 06:11:33;;;;;;;28.73;15.48;;;;;;;;;;10455324;28;20381;-74
2022/11/16 06:16:34;;;;;;;27.80;15.25;;;;;;;;;;10457267;28;20040;-78
2022/11/16 06:21:37;;;;;;;25.50;15.52;;;;;;;;;;10438436;28;20037;-77
2022/11/16 06:26:42;;;;;;;28.92;15.73;;;;;;;;;;10449571;28;20044;-78
2022/11/16 06:31:43;;;;;;;32.95;16.23;;;;;;;;;;10457848;28;20043;-79
2022/11/16 06:36:44;;;;;;;32.25;17.30;;;;;;;;;;10481971;28;20114;-77
2022/11/16 06:41:44;;;;;;;29.02;15.80;;;;;;;;;;10454823;28;20472;-76
2022/11/16 06:46:46;;;;;;;31.30;16.30;;;;;;;;;;10454131;28;20040;-77
2022/11/16 06:51:47;;;;;;;32.63;16.75;;;;;;;;;;10479378;28;20049;-78
2022/11/16 06:56:48;;;;;;;30.75;17.75;;;;;;;;;;10481868;28;20040;-77
2022/11/16 07:01:50;;;;;;;38.35;17.52;;;;;;;;;;10475223;28;20131;-77
2022/11/16 07:06:51;;;;;;;32.83;16.80;;;;;;;;;;10445746;28;20114;-76
2022/11/16 07:11:52;;;;;;;31.27;15.93;;;;;;;;;;10463677;28;20040;-76
2022/11/16 07:16:54;;;;;;;37.50;17.58;;;;;;;;;;10464988;28;20094;-76
2022/11/16 07:21:54;;;;;;;35.58;17.15;;;;;;;;;;10486257;28;20527;-77
2022/11/16 07:26:56;;;;;;;33.20;17.55;;;;;;;;;;10473082;28;20183;-75
2022/11/16 07:31:59;;;;;;;33.53;18.52;;;;;;;;;;10442531;28;20071;-73
2022/11/16 07:37:26;;;;;;;39.90;19.48;;;;;;;;;;10455623;28;20055;-74
2022/11/16 07:42:27;;;;;;;40.28;19.92;;;;;;;;;;10455415;28;20056;-75
2022/11/16 07:47:39;;;;;;;35.38;17.73;;;;;;;;;;10460414;28;20047;-73
2022/11/16 07:52:45;;;;;;;37.78;18.65;;;;;;;;;;10456327;28;20094;-73
2022/11/16 07:57:54;;;;;;;36.83;18.52;;;;;;;;;;10477826;28;20032;-73
2022/11/16 08:02:55;;;;;;;40.07;19.60;;;;;;;;;;10442198;28;20065;-76
2022/11/16 08:07:56;;;;;;;37.85;19.40;;;;;;;;;;10481323;28;20127;-75
2022/11/16 08:12:59;;;;;;;46.42;21.42;;;;;;;;;;10454984;28;20037;-76
2022/11/16 08:18:00;;;;;;;47.42;23.27;;;;;;;;;;10462699;28;20033;-74
2022/11/16 08:23:01;;;;;;;43.83;21.60;;;;;;;;;;10462640;28;20774;-77
2022/11/16 08:28:05;;;;;;;47.33;23.23;;;;;;;;;;10468013;28;20425;-75
2022/11/16 08:33:08;;;;;;;45.97;22.42;;;;;;;;;;10474116;28;20120;-75
2022/11/16 08:38:10;;;;;;;46.55;22.95;;;;;;;;;;10461446;28;20059;-76
2022/11/16 08:43:11;;;;;;;51.72;24.00;;;;;;;;;;10474091;28;20032;-75
2022/11/16 08:48:11;;;;;;;43.35;22.60;;;;;;;;;;10481317;28;20070;-76
2022/11/16 08:53:14;;;;;;;42.50;21.27;;;;;;;;;;10440450;28;20047;-74
2022/11/16 08:58:17;;;;;;;42.83;22.23;;;;;;;;;;10474645;28;20139;-73
2022/11/16 09:03:19;;;;;;;46.28;23.20;;;;;;;;;;10467026;28;20518;-74
2022/11/16 09:08:19;;;;;;;40.63;20.87;;;;;;;;;;10461104;28;20045;-74
2022/11/16 09:13:20;;;;;;;42.78;21.65;;;;;;;;;;10484862;28;20286;-76
2022/11/16 09:18:20;;;;;;;40.63;20.73;;;;;;;;;;10477400;28;20035;-75
2022/11/16 09:23:21;;;;;;;41.10;20.47;;;;;;;;;;10472771;28;20309;-75
2022/11/16 09:28:21;;;;;;;32.72;17.25;;;;;;;;;;10473992;28;20040;-73
2022/11/16 09:33:22;;;;;;;34.15;18.58;;;;;;;;;;10475923;28;20494;-73
2022/11/16 09:38:22;;;;;;;37.33;18.87;;;;;;;;;;10477795;28;20090;-74
2022/11/16 09:43:29;;;;;;;35.30;18.97;;;;;;;;;;10461600;28;20295;-73
2022/11/16 09:48:30;;;;;;;31.73;17.35;;;;;;;;;;10469760;28;20304;-74
2022/11/16 09:53:49;;;;;;;33.65;19.13;;;;;;;;;;10476115;28;20083;-76
2022/11/16 09:58:59;;;;;;;29.75;16.70;;;;;;;;;;10478125;28;20036;-76
2022/11/16 10:04:02;;;;;;;31.52;18.40;;;;;;;;;;10470648;28;20028;-77
2022/11/16 10:09:03;;;;;;;32.05;18.17;;;;;;;;;;10456801;28;20049;-76
2022/11/16 10:14:09;;;;;;;31.58;17.58;;;;;;;;;;10476828;28;20491;-76
2022/11/16 10:19:15;;;;;;;31.27;17.88;;;;;;;;;;10477900;28;20401;-76
2022/11/16 10:24:23;;;;;;;30.00;17.80;;;;;;;;;;10460522;28;20189;-80
2022/11/16 10:29:26;;;;;;;30.92;17.77;;;;;;;;;;10461888;28;20091;-75
2022/11/16 10:34:26;;;;;;;;;;;;;;;;;;10469079;28;20028;-76
2022/11/16 10:39:29;;;;;;;40.80;19.55;;;;;;;;;;10487639;28;19919;-75
2022/11/16 10:44:37;;;;;;;38.33;20.90;;;;;;;;;;10481701;28;20052;-76
2022/11/16 10:49:56;;;;;;;42.67;20.65;;;;;;;;;;10474251;28;20055;-76
2022/11/16 10:54:57;;;;;;;33.90;19.08;;;;;;;;;;10481308;28;20032;-76
2022/11/16 10:59:58;;;;;;;44.67;21.95;;;;;;;;;;10488966;28;20037;-76
2022/11/16 11:05:06;;;;;;;42.33;21.67;;;;;;;;;;10490840;28;20028;-76
2022/11/16 11:10:26;;;;;;;34.35;19.05;;;;;;;;;;10471680;28;20102;-79
2022/11/16 11:15:26;;;;;;;27.15;17.42;;;;;;;;;;10481557;28;20035;-78
2022/11/16 11:20:27;;;;;;;28.40;17.85;;;;;;;;;;10462321;28;20043;-76
2022/11/16 11:25:36;;;;;;;27.35;16.45;;;;;;;;;;10493615;28;20041;-76
2022/11/16 11:30:37;;;;;;;28.00;17.85;;;;;;;;;;10471605;28;20072;-77
2022/11/16 11:35:38;;;;;;;29.38;16.55;;;;;;;;;;10472697;28;20131;-77
2022/11/16 11:40:40;;;;;;;30.57;17.67;;;;;;;;;;10461944;28;20038;-78
2022/11/16 11:45:46;;;;;;;30.23;17.58;;;;;;;;;;10470580;28;20294;-78
2022/11/16 11:50:52;;;;;;;28.98;18.35;;;;;;;;;;10484465;28;20037;-79
2022/11/16 11:55:58;;;;;;;26.60;16.55;;;;;;;;;;10476454;28;20028;-78
2022/11/16 12:01:17;;;;;;;31.80;18.67;;;;;;;;;;10478815;28;20036;-78
2022/11/16 12:06:21;;;;;;;30.70;19.40;;;;;;;;;;10483019;28;20037;-77
2022/11/16 12:11:41;;;;;;;27.83;17.10;;;;;;;;;;10476102;28;20124;-77
2022/11/16 12:17:01;;;;;;;28.20;18.00;;;;;;;;;;10437244;28;20047;-77
2022/11/16 12:22:09;;;;;;;26.48;17.02;;;;;;;;;;10479417;28;20226;-78
2022/11/16 12:27:28;;;;;;;24.95;16.30;;;;;;;;;;10480530;28;20045;-78
2022/11/16 12:32:34;;;;;;;26.80;16.38;;;;;;;;;;10473485;28;20032;-77
2022/11/16 12:37:54;;;;;;;25.13;15.55;;;;;;;;;;10475272;28;20500;-78
2022/11/16 12:42:54;;;;;;;23.92;15.45;;;;;;;;;;10459171;28;20120;-77
2022/11/16 12:48:04;;;;;;;23.48;16.33;;;;;;;;;;10475015;28;20758;-78
2022/11/16 12:53:12;;;;;;;22.88;15.90;;;;;;;;;;10460183;28;20040;-77
2022/11/16 12:58:19;;;;;;;23.80;15.10;;;;;;;;;;10476521;28;20322;-78
2022/11/16 13:03:28;;;;;;;19.80;13.68;;;;;;;;;;10471859;28;20028;-77
2022/11/16 13:08:35;;;;;;;22.02;14.93;;;;;;;;;;10476213;28;20071;-77
2022/11/16 13:13:36;;;;;;;23.02;15.80;;;;;;;;;;10483635;28;20040;-77
2022/11/16 13:18:38;;;;;;;23.20;15.32;;;;;;;;;;10479123;28;20483;-77
2022/11/16 13:23:51;;;;;;;24.42;16.65;;;;;;;;;;10496730;28;20032;-77
2022/11/16 13:29:10;;;;;;;25.92;15.95;;;;;;;;;;10510742;28;20100;-76
2022/11/16 13:34:25;;;;;;;21.67;15.10;;;;;;;;;;10488594;28;20024;-77
2022/11/16 13:39:44;;;;;;;23.63;15.05;;;;;;;;;;10495709;28;20035;-77
2022/11/16 13:44:50;;;;;;;20.70;14.88;;;;;;;;;;10502414;28;20048;-84
2022/11/16 13:49:55;;;;;;;19.92;14.70;;;;;;;;;;10486185;28;20041;-78
2022/11/16 13:55:00;;;;;;;22.45;15.20;;;;;;;;;;10488289;28;20127;-76
2022/11/16 14:00:09;;;;;;;24.55;14.75;;;;;;;;;;10502865;28;20036;-79
2022/11/16 14:05:14;;;;;;;;;;;;;;;;;;10491629;28;20047;-80
2022/11/16 14:10:33;;;;;;;20.30;13.80;;;;;;;;;;10493457;28;20843;-77
2022/11/16 14:15:34;;;;;;;22.05;14.85;;;;;;;;;;10470777;28;20480;-79
2022/11/16 14:20:44;;;;;;;21.50;13.90;;;;;;;;;;10486458;28;20598;-77
2022/11/16 14:26:03;;;;;;;21.48;13.70;;;;;;;;;;10481053;28;20047;-75
2022/11/16 14:31:03;;;;;;;24.80;15.02;;;;;;;;;;10479630;28;20099;-76
2022/11/16 14:36:06;;;;;;;21.07;13.77;;;;;;;;;;10489144;28;20452;-79
2022/11/16 14:41:26;;;;;;;25.60;15.80;;;;;;;;;;10499235;28;20290;-77
2022/11/16 14:46:29;;;;;;;20.60;14.50;;;;;;;;;;10458099;28;20063;-77
2022/11/16 14:51:36;;;;;;;19.80;13.27;;;;;;;;;;10493078;28;20029;-76
2022/11/16 14:56:53;;;;;;;23.45;15.23;;;;;;;;;;10486836;28;20040;-79
2022/11/16 15:01:53;;;;;;;22.80;14.95;;;;;;;;;;10486290;28;20024;-77
2022/11/16 15:06:57;;;;;;;23.20;15.05;;;;;;;;;;10479448;28;20040;-77
2022/11/16 15:17:19;;;;;;;25.52;15.95;;;;;;;;;;10478481;28;19919;-80
2022/11/16 15:22:20;;;;;;;21.25;13.77;;;;;;;;;;10444678;28;20771;-77
2022/11/16 15:27:20;;;;;;;23.40;14.57;;;;;;;;;;10484795;28;20051;-77
2022/11/16 15:32:21;;;;;;;24.23;14.80;;;;;;;;;;10474433;28;20040;-77
2022/11/16 15:37:26;;;;;;;52.55;13.80;;;;;;;;;;10476959;28;20313;-77
2022/11/16 15:42:27;;;;;;;17.10;12.23;;;;;;;;;;10473285;28;20477;-78
2022/11/16 15:47:28;;;;;;;29.10;17.33;;;;;;;;;;10484497;28;20044;-78
2022/11/16 15:52:46;;;;;;;22.83;15.65;;;;;;;;;;10480955;28;20087;-75
2022/11/16 15:57:58;;;;;;;15.20;11.07;;;;;;;;;;10480141;28;20808;-77
2022/11/16 16:03:01;;;;;;;17.83;12.10;;;;;;;;;;10464201;28;20032;-76
2022/11/16 16:08:02;;;;;;;;;;;;;;;;;;10465125;28;20449;-76
2022/11/16 16:13:22;;;;;;;15.93;10.93;;;;;;;;;;10465257;28;20007;-76
2022/11/16 16:18:39;;;;;;;17.65;11.80;;;;;;;;;;10451024;28;20039;-81
2022/11/16 16:23:58;;;;;;;19.35;13.30;;;;;;;;;;10473723;28;20555;-75
2022/11/16 16:28:58;;;;;;;22.55;13.50;;;;;;;;;;10464148;28;20441;-74
2022/11/16 16:34:08;;;;;;;18.00;12.20;;;;;;;;;;10479672;28;20043;-74
2022/11/16 16:39:09;;;;;;;18.65;12.88;;;;;;;;;;10467188;28;20287;-78
2022/11/16 16:44:12;;;;;;;19.25;12.15;;;;;;;;;;10484472;28;20020;-76
2022/11/16 16:49:13;;;;;;;20.00;12.38;;;;;;;;;;10468334;28;20118;-75
2022/11/16 16:54:17;;;;;;;17.73;11.60;;;;;;;;;;10490399;28;20043;-76
2022/11/16 16:59:17;;;;;;;18.63;10.10;;;;;;;;;;10465814;28;20047;-77
2022/11/16 17:04:18;;;;;;;28.23;15.30;;;;;;;;;;10459628;28;20790;-77
2022/11/16 17:09:18;;;;;;;25.55;14.00;;;;;;;;;;10476359;28;20298;-78
2022/11/16 17:14:23;;;;;;;24.63;14.13;;;;;;;;;;10479755;28;20032;-76
2022/11/16 17:19:23;;;;;;;19.90;11.75;;;;;;;;;;10452038;28;20031;-76
2022/11/16 17:24:23;;;;;;;18.33;11.18;;;;;;;;;;10483940;28;20016;-77
2022/11/16 17:29:24;;;;;;;14.10;9.87;;;;;;;;;;10468851;28;20079;-77
2022/11/16 17:34:25;;;;;;;15.52;10.43;;;;;;;;;;10481732;28;20325;-78
2022/11/16 17:39:25;;;;;;;15.68;10.50;;;;;;;;;;10484894;28;20033;-78
2022/11/16 17:44:26;;;;;;;16.80;11.02;;;;;;;;;;10476005;28;20854;-77
2022/11/16 17:49:26;;;;;;;16.95;10.45;;;;;;;;;;10461263;28;20256;-77
2022/11/16 17:54:26;;;;;;;17.17;11.80;;;;;;;;;;10481626;28;20342;-77
2022/11/16 17:59:27;;;;;;;19.17;12.00;;;;;;;;;;10483583;28;20028;-76
2022/11/16 18:04:28;;;;;;;17.38;11.68;;;;;;;;;;10477189;28;20335;-77
2022/11/16 18:09:30;;;;;;;10.88;8.13;;;;;;;;;;10480197;28;20124;-76
2022/11/16 18:14:30;;;;;;;13.18;9.23;;;;;;;;;;10455761;28;20058;-76
2022/11/16 18:19:32;;;;;;;16.52;11.00;;;;;;;;;;10474192;28;20115;-76
2022/11/16 18:24:32;;;;;;;15.95;11.00;;;;;;;;;;10477955;28;20465;-75
2022/11/16 18:29:35;;;;;;;14.47;10.00;;;;;;;;;;10455300;28;20117;-75
2022/11/16 18:34:35;;;;;;;14.18;9.45;;;;;;;;;;10472951;28;20623;-75
2022/11/16 18:39:35;;;;;;;15.73;10.77;;;;;;;;;;10445777;28;20040;-78
2022/11/16 18:44:36;;;;;;;15.80;11.38;;;;;;;;;;10455642;28;20029;-79
2022/11/16 18:49:38;;;;;;;13.50;9.70;;;;;;;;;;10479758;28;20051;-76
2022/11/16 18:54:38;;;;;;;16.85;10.40;;;;;;;;;;10461366;28;20036;-77
2022/11/16 18:59:39;;;;;;;15.02;9.70;;;;;;;;;;10471856;28;20342;-76
2022/11/16 19:04:39;;;;;;;14.53;10.40;;;;;;;;;;10481423;28;20036;-74
2022/11/16 19:09:41;;;;;;;13.23;9.10;;;;;;;;;;10480615;28;20320;-74
2022/11/16 19:14:47;;;;;;;13.93;9.63;;;;;;;;;;10460705;28;20967;-76
2022/11/16 19:19:48;;;;;;;16.98;11.45;;;;;;;;;;10461315;28;20053;-76
2022/11/16 19:24:49;;;;;;;15.60;10.20;;;;;;;;;;10465813;28;20039;-76
2022/11/16 19:29:50;;;;;;;14.02;9.60;;;;;;;;;;10478742;28;20053;-75
2022/11/16 19:34:51;;;;;;;13.73;9.70;;;;;;;;;;10501998;28;20096;-76
2022/11/16 19:39:52;;;;;;;14.48;10.00;;;;;;;;;;10476666;28;20445;-75
2022/11/16 19:44:53;;;;;;;13.63;9.95;;;;;;;;;;10464783;28;20028;-74
2022/11/16 19:49:53;;;;;;;12.68;9.75;;;;;;;;;;10475400;28;20057;-74
2022/11/16 19:54:54;;;;;;;19.88;12.38;;;;;;;;;;10473942;28;20040;-74
2022/11/16 19:59:55;;;;;;;15.13;11.10;;;;;;;;;;10482013;28;20465;-74
2022/11/16 20:04:56;;;;;;;15.27;10.45;;;;;;;;;;10469376;28;20032;-75
2022/11/16 20:09:58;;;;;;;15.90;10.90;;;;;;;;;;10501533;28;20443;-77
2022/11/16 20:15:00;;;;;;;18.15;12.35;;;;;;;;;;10480823;28;20090;-75
2022/11/16 20:20:01;;;;;;;14.57;11.00;;;;;;;;;;10513693;28;20096;-75
2022/11/16 20:25:02;;;;;;;16.30;11.05;;;;;;;;;;10471523;28;20051;-75
2022/11/16 20:30:03;;;;;;;16.33;10.68;;;;;;;;;;10517946;28;20040;-75
2022/11/16 20:35:03;;;;;;;14.10;9.85;;;;;;;;;;10526343;28;20031;-77
2022/11/16 20:40:04;;;;;;;19.88;13.55;;;;;;;;;;10509964;28;20028;-77
2022/11/16 20:45:06;;;;;;;18.20;12.32;;;;;;;;;;10454373;28;20067;-75
2022/11/16 20:50:07;;;;;;;17.85;12.48;;;;;;;;;;10458269;28;20056;-76
2022/11/16 20:55:07;;;;;;;20.55;13.68;;;;;;;;;;10482528;28;20035;-76
2022/11/16 21:00:08;;;;;;;22.98;13.07;;;;;;;;;;10465692;28;20497;-77
2022/11/16 21:05:08;;;;;;;16.63;11.52;;;;;;;;;;10473299;28;20064;-76
2022/11/16 21:10:18;;;;;;;12.60;9.77;;;;;;;;;;10453581;28;20113;-76
2022/11/16 21:15:18;;;;;;;17.45;11.77;;;;;;;;;;10479161;28;20766;-77
2022/11/16 21:20:19;;;;;;;18.95;12.43;;;;;;;;;;10454714;28;20032;-76
2022/11/16 21:25:19;;;;;;;18.73;12.45;;;;;;;;;;10468216;28;20033;-76
2022/11/16 21:30:19;;;;;;;19.30;12.17;;;;;;;;;;10470553;28;20048;-75
2022/11/16 21:35:22;;;;;;;16.73;10.65;;;;;;;;;;10480714;28;20310;-75
2022/11/16 21:40:22;;;;;;;16.13;11.38;;;;;;;;;;10454062;28;20477;-75
2022/11/16 21:45:23;;;;;;;17.48;11.82;;;;;;;;;;10465271;28;20043;-77
2022/11/16 21:50:23;;;;;;;16.10;11.93;;;;;;;;;;10476191;28;20055;-75
2022/11/16 21:55:23;;;;;;;17.17;12.37;;;;;;;;;;10486295;28;20294;-76
2022/11/16 22:00:24;;;;;;;17.05;10.73;;;;;;;;;;10466585;28;20938;-75
2022/11/16 22:10:51;;;;;;;15.45;10.93;;;;;;;;;;10481002;28;20039;-75
2022/11/16 22:15:51;;;;;;;16.70;11.30;;;;;;;;;;10471670;28;20033;-75
2022/11/16 22:20:51;;;;;;;18.13;11.77;;;;;;;;;;10484533;28;20036;-76
2022/11/16 22:25:52;;;;;;;18.25;11.70;;;;;;;;;;10483684;28;20763;-76
2022/11/16 22:31:03;;;;;;;19.13;12.80;;;;;;;;;;10468424;28;20136;-75
2022/11/16 22:36:04;;;;;;;18.42;11.85;;;;;;;;;;10468373;28;20384;-76
2022/11/16 22:41:06;;;;;;;16.27;11.73;;;;;;;;;;10517154;28;20128;-76
2022/11/16 22:46:06;;;;;;;18.80;12.32;;;;;;;;;;10502294;28;20127;-76
2022/11/16 22:51:16;;;;;;;18.05;11.98;;;;;;;;;;10475694;28;20032;-75
2022/11/16 22:56:19;;;;;;;18.23;11.82;;;;;;;;;;10478581;28;20033;-74
2022/11/16 23:01:19;;;;;;;20.70;12.60;;;;;;;;;;10473312;28;20476;-76
2022/11/16 23:06:20;;;;;;;16.58;11.57;;;;;;;;;;10485175;28;20040;-78
2022/11/16 23:16:41;;;;;;;18.65;11.73;;;;;;;;;;10488622;28;20754;-76
2022/11/16 23:32:22;;;;;;;17.35;11.30;;;;;;;;;;10470117;28;20033;-76
2022/11/16 23:37:23;;;;;;;18.65;11.20;;;;;;;;;;10484402;28;20029;-77
2022/11/16 23:47:43;;;;;;;15.57;10.20;;;;;;;;;;10485519;28;20048;-75
2022/11/16 23:52:43;;;;;;;16.17;10.68;;;;;;;;;;10470291;28;20040;-74
2022/11/16 23:57:44;;;;;;;21.93;12.87;;;;;;;;;;10472992;28;20033;-74
